Aegean Orion — SVA2487 — position and weather

sailwx.info

Track history (hours):
 
Tides and Currents Weather Stations Pressure Air Temp Water Temp Dewpoint Dewpoint Depression Visibility Wind Speed Wind Dir Waves Ship Positions

Aegean Orion

Last reported at 2015-Jul-05 03:34 UTC. Time now 2015-Jul-06 01:01 UTC.
Position N 37°60' E 023°33'.

; draft 2.4 m.

Type: Ship. MMSI: 239550200.

Date/timePositionNaut miles runAvg speedWind from/ knotsBaromVisibWave heightAir tempDewpointWater temp
2015-Jul-05 03:34N 37°60' E 023°33'3 2.7
2015-Jul-05 02:33N 37°57' E 023°34'0 0.0
2015-Jul-05 01:34N 37°57' E 023°34'0 0.0
2015-Jul-05 00:34N 37°57' E 023°34'0 0.0
2015-Jul-04 23:34N 37°57' E 023°34'2 2.1
2015-Jul-04 22:33N 37°56' E 023°37'1 1.5
2015-Jul-04 21:34N 37°57' E 023°38'0 0.0
2015-Jul-04 20:33N 37°57' E 023°38'3 3.2
2015-Jul-04 19:33N 37°57' E 023°34'0 0.0
2015-Jul-04 18:34N 37°57' E 023°34'1 1.3
2015-Jul-04 17:34N 37°58' E 023°33'4 4.4
2015-Jul-04 16:32N 38°02' E 023°32'1 0.0
2015-Jul-03 19:34N 38°02' E 023°31'0 0.1
2015-Jul-03 18:33N 38°02' E 023°31'0 0.0
2015-Jul-03 17:33N 38°02' E 023°31'0 0.0
2015-Jul-03 16:33N 38°02' E 023°31'0 0.0
2015-Jul-03 15:33N 38°02' E 023°31'4 4.0
2015-Jul-03 14:33N 37°59' E 023°33'5 4.8
2015-Jul-03 13:33N 37°57' E 023°38'0 0.0
2015-Jul-03 12:33N 37°57' E 023°38'2 1.6
2015-Jul-03 11:33N 37°57' E 023°36'2 1.8
2015-Jul-03 10:33N 37°57' E 023°34'0 0.0
2015-Jul-03 09:34N 37°57' E 023°34'0 0.0
2015-Jul-03 08:33N 37°57' E 023°34'0 0.0
2015-Jul-03 07:34N 37°57' E 023°34'0 0.0
2015-Jul-03 06:33N 37°57' E 023°34'0 0.0
2015-Jul-03 05:33N 37°57' E 023°34'0 0.0
2015-Jul-03 04:33N 37°57' E 023°34'3 3.2
2015-Jul-03 03:33N 37°57' E 023°38'0 0.1
2015-Jul-03 02:33N 37°57' E 023°38'1 1.4
2015-Jul-03 01:34N 37°56' E 023°37'2 2.2
2015-Jul-03 00:33N 37°57' E 023°34'0 0.0
2015-Jul-02 23:33N 37°57' E 023°34'0 0.0
2015-Jul-02 22:33N 37°57' E 023°34'0 0.0
2015-Jul-02 21:33N 37°57' E 023°34'0 0.0
2015-Jul-02 20:33N 37°57' E 023°34'0 0.0
2015-Jul-02 19:33N 37°57' E 023°34'0 0.0
2015-Jul-02 18:33N 37°57' E 023°34'4 4.2
2015-Jul-02 17:33N 38°01' E 023°32'1 1.1
2015-Jul-02 16:33N 38°02' E 023°31'1 0.5
2015-Jul-02 15:33N 38°02' E 023°31'0 0.0
2015-Jul-02 14:33N 38°02' E 023°31'0 0.0
2015-Jul-02 13:33N 38°02' E 023°31'0 0.0
2015-Jul-02 12:33N 38°02' E 023°31'6 2.0
2015-Jul-02 09:33N 37°57' E 023°35'2 2.4
2015-Jul-02 08:33N 37°56' E 023°37'0 0.0
2015-Jul-02 07:33N 37°56' E 023°37'0 0.4
2015-Jul-02 06:33N 37°56' E 023°37'5 1.7
2015-Jul-02 03:31N 38°02' E 023°35'0 0.0
2015-Jul-02 02:33N 38°02' E 023°35'0 0.0
2015-Jul-02 01:33N 38°02' E 023°35'0 0.0
2015-Jul-02 00:33N 38°02' E 023°35'0 0.0
2015-Jul-01 23:33N 38°02' E 023°35'0 0.0
2015-Jul-01 22:33N 38°02' E 023°35'1 0.6
2015-Jul-01 21:33N 38°02' E 023°36'0 0.0
2015-Jul-01 19:33N 38°02' E 023°36'1 0.4
2015-Jul-01 17:34N 38°01' E 023°35'4 1.2
2015-Jul-01 14:19N 37°58' E 023°33'5 6.1
2015-Jul-01 13:33N 37°57' E 023°38'0 0.0
2015-Jul-01 12:33N 37°57' E 023°38'1 1.4
2015-Jul-01 11:34N 37°56' E 023°37'2 2.1
2015-Jul-01 10:33N 37°57' E 023°34'0 0.0
2015-Jul-01 09:34N 37°57' E 023°34'1 0.6
2015-Jul-01 08:34N 37°57' E 023°34'2 2.2
2015-Jul-01 07:33N 37°58' E 023°36'0 0.0
2015-Jul-01 06:33N 37°58' E 023°36'0 0.0
2015-Jul-01 05:33N 37°58' E 023°36'3 2.6
2015-Jul-01 04:33N 37°57' E 023°33'5 0.4
2015-Jun-30 17:33N 38°02' E 023°31'1 0.5
2015-Jun-30 16:33N 38°02' E 023°31'0 0.0
2015-Jun-30 15:33N 38°02' E 023°31'0 0.0
2015-Jun-30 14:33N 38°02' E 023°31'0 0.0
2015-Jun-30 13:33N 38°02' E 023°31'1 0.5
2015-Jun-30 12:33N 38°02' E 023°31'1 0.0
2015-Jun-29 19:16N 38°02' E 023°32'5 7.7
2015-Jun-29 18:33N 37°57' E 023°35'3 2.9
2015-Jun-29 17:33N 37°57' E 023°38'1 1.5
2015-Jun-29 16:34N 37°56' E 023°37'2 2.0
2015-Jun-29 15:33N 37°57' E 023°35'0 0.0
2015-Jun-29 14:33N 37°57' E 023°35'3 3.1
2015-Jun-29 13:33N 37°57' E 023°38'0 0.0
2015-Jun-29 12:33N 37°57' E 023°38'1 1.5
2015-Jun-29 11:33N 37°56' E 023°37'5 4.6
2015-Jun-29 10:33N 37°60' E 023°33'3 0.2
2015-Jun-28 19:34N 38°02' E 023°36'0 0.1
2015-Jun-28 18:34N 38°02' E 023°36'0 0.0
2015-Jun-28 17:33N 38°02' E 023°36'0 0.3
2015-Jun-28 16:33N 38°02' E 023°35'0 0.1
2015-Jun-28 15:33N 38°02' E 023°35'0 0.0
2015-Jun-28 14:33N 38°02' E 023°35'0 0.0
2015-Jun-28 13:34N 38°02' E 023°35'2 0.1
2015-Jun-26 14:34N 38°01' E 023°32'6 6.3
2015-Jun-26 13:34N 37°57' E 023°38'0 0.0
2015-Jun-26 12:34N 37°57' E 023°38'0 0.0
2015-Jun-26 11:34N 37°57' E 023°38'0 0.3
2015-Jun-26 10:34N 37°57' E 023°38'5 5.3
2015-Jun-26 09:33N 37°60' E 023°33'3 2.8
2015-Jun-26 08:33N 38°02' E 023°35'0 0.0
2015-Jun-26 07:33N 38°02' E 023°35'3 2.6
2015-Jun-26 06:34N 38°02' E 023°32'2 0.1
2015-Jun-25 12:34N 38°02' E 023°35'0 0.0
2015-Jun-25 11:33N 38°02' E 023°35'4 4.1
2015-Jun-25 10:34N 37°58' E 023°33'4 4.5
2015-Jun-25 09:34N 37°57' E 023°38'0 0.0
2015-Jun-25 08:33N 37°57' E 023°38'0 0.0
2015-Jun-25 07:33N 37°57' E 023°38'0 0.0
2015-Jun-25 06:34N 37°57' E 023°38'1 0.8
2015-Jun-25 05:34N 37°56' E 023°37'6 6.2
2015-Jun-25 04:34N 38°01' E 023°32'  
Track history (hours):
 
Tides and Currents Weather Stations Pressure Air Temp Water Temp Dewpoint Dewpoint Depression Visibility Wind Speed Wind Dir Waves Ship Positions

Aegean Orion

Last reported at 2015-Jul-05 03:34 UTC. Time now 2015-Jul-06 01:01 UTC.
Position N 37°60' E 023°33'.

; draft 2.4 m.

Type: Ship. MMSI: 239550200.

Date/timePositionNaut miles runAvg speedWind from/ knotsBaromVisibWave heightAir tempDewpointWater temp
2015-Jul-05 03:34N 37°60' E 023°33'3 2.7
2015-Jul-05 02:33N 37°57' E 023°34'0 0.0
2015-Jul-05 01:34N 37°57' E 023°34'0 0.0
2015-Jul-05 00:34N 37°57' E 023°34'0 0.0
2015-Jul-04 23:34N 37°57' E 023°34'2 2.1
2015-Jul-04 22:33N 37°56' E 023°37'1 1.5
2015-Jul-04 21:34N 37°57' E 023°38'0 0.0
2015-Jul-04 20:33N 37°57' E 023°38'3 3.2
2015-Jul-04 19:33N 37°57' E 023°34'0 0.0
2015-Jul-04 18:34N 37°57' E 023°34'1 1.3
2015-Jul-04 17:34N 37°58' E 023°33'4 4.4
2015-Jul-04 16:32N 38°02' E 023°32'1 0.0
2015-Jul-03 19:34N 38°02' E 023°31'0 0.1
2015-Jul-03 18:33N 38°02' E 023°31'0 0.0
2015-Jul-03 17:33N 38°02' E 023°31'0 0.0
2015-Jul-03 16:33N 38°02' E 023°31'0 0.0
2015-Jul-03 15:33N 38°02' E 023°31'4 4.0
2015-Jul-03 14:33N 37°59' E 023°33'5 4.8
2015-Jul-03 13:33N 37°57' E 023°38'0 0.0
2015-Jul-03 12:33N 37°57' E 023°38'2 1.6
2015-Jul-03 11:33N 37°57' E 023°36'2 1.8
2015-Jul-03 10:33N 37°57' E 023°34'0 0.0
2015-Jul-03 09:34N 37°57' E 023°34'0 0.0
2015-Jul-03 08:33N 37°57' E 023°34'0 0.0
2015-Jul-03 07:34N 37°57' E 023°34'0 0.0
2015-Jul-03 06:33N 37°57' E 023°34'0 0.0
2015-Jul-03 05:33N 37°57' E 023°34'0 0.0
2015-Jul-03 04:33N 37°57' E 023°34'3 3.2
2015-Jul-03 03:33N 37°57' E 023°38'0 0.1
2015-Jul-03 02:33N 37°57' E 023°38'1 1.4
2015-Jul-03 01:34N 37°56' E 023°37'2 2.2
2015-Jul-03 00:33N 37°57' E 023°34'0 0.0
2015-Jul-02 23:33N 37°57' E 023°34'0 0.0
2015-Jul-02 22:33N 37°57' E 023°34'0 0.0
2015-Jul-02 21:33N 37°57' E 023°34'0 0.0
2015-Jul-02 20:33N 37°57' E 023°34'0 0.0
2015-Jul-02 19:33N 37°57' E 023°34'0 0.0
2015-Jul-02 18:33N 37°57' E 023°34'4 4.2
2015-Jul-02 17:33N 38°01' E 023°32'1 1.1
2015-Jul-02 16:33N 38°02' E 023°31'1 0.5
2015-Jul-02 15:33N 38°02' E 023°31'0 0.0
2015-Jul-02 14:33N 38°02' E 023°31'0 0.0
2015-Jul-02 13:33N 38°02' E 023°31'0 0.0
2015-Jul-02 12:33N 38°02' E 023°31'6 2.0
2015-Jul-02 09:33N 37°57' E 023°35'2 2.4
2015-Jul-02 08:33N 37°56' E 023°37'0 0.0
2015-Jul-02 07:33N 37°56' E 023°37'0 0.4
2015-Jul-02 06:33N 37°56' E 023°37'5 1.7
2015-Jul-02 03:31N 38°02' E 023°35'0 0.0
2015-Jul-02 02:33N 38°02' E 023°35'0 0.0
2015-Jul-02 01:33N 38°02' E 023°35'0 0.0
2015-Jul-02 00:33N 38°02' E 023°35'0 0.0
2015-Jul-01 23:33N 38°02' E 023°35'0 0.0
2015-Jul-01 22:33N 38°02' E 023°35'1 0.6
2015-Jul-01 21:33N 38°02' E 023°36'0 0.0
2015-Jul-01 19:33N 38°02' E 023°36'1 0.4
2015-Jul-01 17:34N 38°01' E 023°35'4 1.2
2015-Jul-01 14:19N 37°58' E 023°33'5 6.1
2015-Jul-01 13:33N 37°57' E 023°38'0 0.0
2015-Jul-01 12:33N 37°57' E 023°38'1 1.4
2015-Jul-01 11:34N 37°56' E 023°37'2 2.1
2015-Jul-01 10:33N 37°57' E 023°34'0 0.0
2015-Jul-01 09:34N 37°57' E 023°34'1 0.6
2015-Jul-01 08:34N 37°57' E 023°34'2 2.2
2015-Jul-01 07:33N 37°58' E 023°36'0 0.0
2015-Jul-01 06:33N 37°58' E 023°36'0 0.0
2015-Jul-01 05:33N 37°58' E 023°36'3 2.6
2015-Jul-01 04:33N 37°57' E 023°33'5 0.4
2015-Jun-30 17:33N 38°02' E 023°31'1 0.5
2015-Jun-30 16:33N 38°02' E 023°31'0 0.0
2015-Jun-30 15:33N 38°02' E 023°31'0 0.0
2015-Jun-30 14:33N 38°02' E 023°31'0 0.0
2015-Jun-30 13:33N 38°02' E 023°31'1 0.5
2015-Jun-30 12:33N 38°02' E 023°31'1 0.0
2015-Jun-29 19:16N 38°02' E 023°32'5 7.7
2015-Jun-29 18:33N 37°57' E 023°35'3 2.9
2015-Jun-29 17:33N 37°57' E 023°38'1 1.5
2015-Jun-29 16:34N 37°56' E 023°37'2 2.0
2015-Jun-29 15:33N 37°57' E 023°35'0 0.0
2015-Jun-29 14:33N 37°57' E 023°35'3 3.1
2015-Jun-29 13:33N 37°57' E 023°38'0 0.0
2015-Jun-29 12:33N 37°57' E 023°38'1 1.5
2015-Jun-29 11:33N 37°56' E 023°37'5 4.6
2015-Jun-29 10:33N 37°60' E 023°33'3 0.2
2015-Jun-28 19:34N 38°02' E 023°36'0 0.1
2015-Jun-28 18:34N 38°02' E 023°36'0 0.0
2015-Jun-28 17:33N 38°02' E 023°36'0 0.3
2015-Jun-28 16:33N 38°02' E 023°35'0 0.1
2015-Jun-28 15:33N 38°02' E 023°35'0 0.0
2015-Jun-28 14:33N 38°02' E 023°35'0 0.0
2015-Jun-28 13:34N 38°02' E 023°35'2 0.1
2015-Jun-26 14:34N 38°01' E 023°32'6 6.3
2015-Jun-26 13:34N 37°57' E 023°38'0 0.0
2015-Jun-26 12:34N 37°57' E 023°38'0 0.0
2015-Jun-26 11:34N 37°57' E 023°38'0 0.3
2015-Jun-26 10:34N 37°57' E 023°38'5 5.3
2015-Jun-26 09:33N 37°60' E 023°33'3 2.8
2015-Jun-26 08:33N 38°02' E 023°35'0 0.0
2015-Jun-26 07:33N 38°02' E 023°35'3 2.6
2015-Jun-26 06:34N 38°02' E 023°32'2 0.1
2015-Jun-25 12:34N 38°02' E 023°35'0 0.0
2015-Jun-25 11:33N 38°02' E 023°35'4 4.1
2015-Jun-25 10:34N 37°58' E 023°33'4 4.5
2015-Jun-25 09:34N 37°57' E 023°38'0 0.0
2015-Jun-25 08:33N 37°57' E 023°38'0 0.0
2015-Jun-25 07:33N 37°57' E 023°38'0 0.0
2015-Jun-25 06:34N 37°57' E 023°38'1 0.8
2015-Jun-25 05:34N 37°56' E 023°37'6 6.2
2015-Jun-25 04:34N 38°01' E 023°32'  

Dump ship's entire track history